sensor_id;sensor_type;location;lat;lon;timestamp;pressure;altitude;pressure_sealevel;temperature;humidity
69245;BME280;56357;52.304;4.870;2024-02-21T00:01:15;102322.75;;;18.54;57.22
69245;BME280;56357;52.304;4.870;2024-02-21T00:03:42;102339.09;;;18.57;57.24
69245;BME280;56357;52.304;4.870;2024-02-21T00:06:08;102333.25;;;18.59;57.61
69245;BME280;56357;52.304;4.870;2024-02-21T00:08:35;102330.09;;;18.55;57.59
69245;BME280;56357;52.304;4.870;2024-02-21T00:11:01;102329.47;;;18.53;57.32
69245;BME280;56357;52.304;4.870;2024-02-21T00:13:27;102329.59;;;18.47;57.32
69245;BME280;56357;52.304;4.870;2024-02-21T00:15:54;102319.13;;;18.54;57.71
69245;BME280;56357;52.304;4.870;2024-02-21T00:18:21;102316.31;;;18.54;57.26
69245;BME280;56357;52.304;4.870;2024-02-21T00:20:47;102306.06;;;18.48;57.17
69245;BME280;56357;52.304;4.870;2024-02-21T00:23:13;102296.66;;;18.54;57.53
69245;BME280;56357;52.304;4.870;2024-02-21T00:25:40;102316.78;;;18.51;57.45
69245;BME280;56357;52.304;4.870;2024-02-21T00:28:06;102315.09;;;18.50;57.21
69245;BME280;56357;52.304;4.870;2024-02-21T00:30:32;102310.91;;;18.41;57.31
69245;BME280;56357;52.304;4.870;2024-02-21T00:32:59;102316.19;;;18.37;57.28
69245;BME280;56357;52.304;4.870;2024-02-21T00:35:25;102305.13;;;18.42;57.15
69245;BME280;56357;52.304;4.870;2024-02-21T00:37:52;102304.97;;;18.37;57.43
69245;BME280;56357;52.304;4.870;2024-02-21T00:40:18;102298.25;;;18.38;57.59
69245;BME280;56357;52.304;4.870;2024-02-21T00:42:46;102315.31;;;18.37;57.54
69245;BME280;56357;52.304;4.870;2024-02-21T00:45:12;102310.22;;;18.34;57.40
69245;BME280;56357;52.304;4.870;2024-02-21T00:47:38;102307.31;;;18.28;57.82
69245;BME280;56357;52.304;4.870;2024-02-21T00:50:06;102309.47;;;18.38;57.52
69245;BME280;56357;52.304;4.870;2024-02-21T00:52:32;102307.31;;;18.28;57.53
69245;BME280;56357;52.304;4.870;2024-02-21T00:54:59;102309.00;;;18.29;57.71
69245;BME280;56357;52.304;4.870;2024-02-21T00:57:26;102303.91;;;18.26;57.25
69245;BME280;56357;52.304;4.870;2024-02-21T00:59:52;102300.13;;;18.33;57.17
69245;BME280;56357;52.304;4.870;2024-02-21T01:02:18;102296.22;;;18.22;57.36
69245;BME280;56357;52.304;4.870;2024-02-21T01:04:45;102294.75;;;18.19;57.20
69245;BME280;56357;52.304;4.870;2024-02-21T01:07:11;102287.28;;;18.25;57.58
69245;BME280;56357;52.304;4.870;2024-02-21T01:09:38;102291.47;;;18.22;57.20
69245;BME280;56357;52.304;4.870;2024-02-21T01:12:04;102282.53;;;18.25;57.15
69245;BME280;56357;52.304;4.870;2024-02-21T01:14:31;102280.25;;;18.22;57.32
69245;BME280;56357;52.304;4.870;2024-02-21T01:16:57;102282.44;;;18.20;57.33
69245;BME280;56357;52.304;4.870;2024-02-21T01:19:24;102271.22;;;18.20;57.31
69245;BME280;56357;52.304;4.870;2024-02-21T01:21:50;102268.44;;;18.20;57.02
69245;BME280;56357;52.304;4.870;2024-02-21T01:24:16;102267.81;;;18.18;57.19
69245;BME280;56357;52.304;4.870;2024-02-21T01:26:43;102254.28;;;18.15;57.54
69245;BME280;56357;52.304;4.870;2024-02-21T01:29:09;102248.53;;;18.22;57.01
69245;BME280;56357;52.304;4.870;2024-02-21T01:31:36;102240.66;;;18.19;57.27
69245;BME280;56357;52.304;4.870;2024-02-21T01:34:02;102245.03;;;18.15;57.23
69245;BME280;56357;52.304;4.870;2024-02-21T01:36:28;102244.19;;;18.14;57.14
69245;BME280;56357;52.304;4.870;2024-02-21T01:38:55;102239.06;;;18.11;57.22
69245;BME280;56357;52.304;4.870;2024-02-21T01:41:21;102242.09;;;18.10;57.31
69245;BME280;56357;52.304;4.870;2024-02-21T01:43:47;102236.84;;;18.13;57.43
69245;BME280;56357;52.304;4.870;2024-02-21T01:46:14;102242.09;;;18.10;57.53
69245;BME280;56357;52.304;4.870;2024-02-21T01:48:40;102231.50;;;18.12;57.23
69245;BME280;56357;52.304;4.870;2024-02-21T01:51:08;102225.63;;;18.13;57.11
69245;BME280;56357;52.304;4.870;2024-02-21T01:53:37;102225.53;;;18.08;57.11
69245;BME280;56357;52.304;4.870;2024-02-21T01:56:06;102224.47;;;18.09;57.04
69245;BME280;56357;52.304;4.870;2024-02-21T01:58:35;102228.09;;;18.10;57.19
69245;BME280;56357;52.304;4.870;2024-02-21T02:01:03;102231.75;;;18.10;56.90
69245;BME280;56357;52.304;4.870;2024-02-21T02:03:29;102232.25;;;18.07;57.31
69245;BME280;56357;52.304;4.870;2024-02-21T02:05:56;102227.25;;;18.09;57.14
69245;BME280;56357;52.304;4.870;2024-02-21T02:08:22;102220.19;;;18.07;57.02
69245;BME280;56357;52.304;4.870;2024-02-21T02:10:49;102215.31;;;18.02;57.01
69245;BME280;56357;52.304;4.870;2024-02-21T02:13:16;102213.63;;;18.01;56.84
69245;BME280;56357;52.304;4.870;2024-02-21T02:15:45;102205.56;;;18.05;57.10
69245;BME280;56357;52.304;4.870;2024-02-21T02:18:13;102213.72;;;18.06;57.00
69245;BME280;56357;52.304;4.870;2024-02-21T02:20:40;102215.06;;;18.04;57.12
69245;BME280;56357;52.304;4.870;2024-02-21T02:23:11;102208.97;;;18.07;57.12
69245;BME280;56357;52.304;4.870;2024-02-21T02:25:39;102203.84;;;18.04;57.22
69245;BME280;56357;52.304;4.870;2024-02-21T02:28:06;102196.91;;;18.06;57.04
69245;BME280;56357;52.304;4.870;2024-02-21T02:30:34;102203.00;;;18.03;56.80
69245;BME280;56357;52.304;4.870;2024-02-21T02:33:04;102197.41;;;18.03;57.26
69245;BME280;56357;52.304;4.870;2024-02-21T02:35:31;102199.69;;;18.06;57.16
69245;BME280;56357;52.304;4.870;2024-02-21T02:38:00;102200.47;;;18.02;57.06
69245;BME280;56357;52.304;4.870;2024-02-21T02:40:27;102192.00;;;18.13;57.18
69245;BME280;56357;52.304;4.870;2024-02-21T02:42:53;102191.75;;;18.15;57.01
69245;BME280;56357;52.304;4.870;2024-02-21T02:45:22;102190.69;;;18.04;56.80
69245;BME280;56357;52.304;4.870;2024-02-21T02:47:49;102172.44;;;18.02;56.89
69245;BME280;56357;52.304;4.870;2024-02-21T02:50:15;102181.28;;;18.10;57.23
69245;BME280;56357;52.304;4.870;2024-02-21T02:52:42;102191.91;;;18.08;56.99
69245;BME280;56357;52.304;4.870;2024-02-21T02:55:08;102176.03;;;18.14;57.30
69245;BME280;56357;52.304;4.870;2024-02-21T02:57:34;102177.75;;;18.15;56.61
69245;BME280;56357;52.304;4.870;2024-02-21T03:00:01;102173.47;;;18.12;57.12
69245;BME280;56357;52.304;4.870;2024-02-21T03:02:27;102166.38;;;18.21;56.74
69245;BME280;56357;52.304;4.870;2024-02-21T03:04:54;102159.72;;;18.11;57.25
69245;BME280;56357;52.304;4.870;2024-02-21T03:07:20;102154.81;;;18.18;57.16
69245;BME280;56357;52.304;4.870;2024-02-21T03:09:46;102142.84;;;18.22;56.69
69245;BME280;56357;52.304;4.870;2024-02-21T03:12:13;102142.13;;;18.15;56.98
69245;BME280;56357;52.304;4.870;2024-02-21T03:14:44;102137.97;;;18.18;57.00
69245;BME280;56357;52.304;4.870;2024-02-21T03:17:10;102134.13;;;18.36;56.48
69245;BME280;56357;52.304;4.870;2024-02-21T03:19:36;102120.91;;;18.19;56.86
69245;BME280;56357;52.304;4.870;2024-02-21T03:22:03;102128.78;;;18.34;56.31
69245;BME280;56357;52.304;4.870;2024-02-21T03:24:31;102130.38;;;18.30;56.86
69245;BME280;56357;52.304;4.870;2024-02-21T03:26:58;102108.88;;;18.36;56.43
69245;BME280;56357;52.304;4.870;2024-02-21T03:29:25;102115.56;;;18.35;56.86
69245;BME280;56357;52.304;4.870;2024-02-21T03:31:51;102105.06;;;18.42;56.75
69245;BME280;56357;52.304;4.870;2024-02-21T03:34:17;102108.53;;;18.32;56.58
69245;BME280;56357;52.304;4.870;2024-02-21T03:36:44;102105.28;;;18.52;56.27
69245;BME280;56357;52.304;4.870;2024-02-21T03:39:10;102105.72;;;18.32;56.98
69245;BME280;56357;52.304;4.870;2024-02-21T03:41:36;102110.34;;;18.38;56.93
69245;BME280;56357;52.304;4.870;2024-02-21T03:44:03;102117.34;;;18.52;56.33
69245;BME280;56357;52.304;4.870;2024-02-21T03:46:30;102111.31;;;18.44;56.41
69245;BME280;56357;52.304;4.870;2024-02-21T03:48:57;102100.69;;;18.46;56.39
69245;BME280;56357;52.304;4.870;2024-02-21T03:51:23;102076.72;;;18.55;56.06
69245;BME280;56357;52.304;4.870;2024-02-21T03:53:50;102076.88;;;18.48;56.55
69245;BME280;56357;52.304;4.870;2024-02-21T03:56:16;102087.75;;;18.45;56.44
69245;BME280;56357;52.304;4.870;2024-02-21T03:58:42;102088.72;;;18.39;56.77
69245;BME280;56357;52.304;4.870;2024-02-21T04:01:09;102093.41;;;18.61;56.28
69245;BME280;56357;52.304;4.870;2024-02-21T04:03:35;102085.56;;;18.63;56.44
69245;BME280;56357;52.304;4.870;2024-02-21T04:06:01;102078.59;;;18.66;55.92
69245;BME280;56357;52.304;4.870;2024-02-21T04:08:28;102072.72;;;18.67;56.11
69245;BME280;56357;52.304;4.870;2024-02-21T04:10:54;102073.06;;;18.54;56.62
69245;BME280;56357;52.304;4.870;2024-02-21T04:13:21;102074.75;;;18.72;55.96
69245;BME280;56357;52.304;4.870;2024-02-21T04:15:48;102073.38;;;18.58;56.53
69245;BME280;56357;52.304;4.870;2024-02-21T04:18:14;102073.00;;;18.82;55.88
69245;BME280;56357;52.304;4.870;2024-02-21T04:20:40;102083.28;;;18.77;55.47
69245;BME280;56357;52.304;4.870;2024-02-21T04:23:07;102085.03;;;18.83;55.68
69245;BME280;56357;52.304;4.870;2024-02-21T04:25:33;102085.63;;;18.85;55.86
69245;BME280;56357;52.304;4.870;2024-02-21T04:28:00;102079.59;;;18.60;56.20
69245;BME280;56357;52.304;4.870;2024-02-21T04:30:26;102075.44;;;18.79;55.88
69245;BME280;56357;52.304;4.870;2024-02-21T04:32:52;102081.50;;;18.71;55.96
69245;BME280;56357;52.304;4.870;2024-02-21T04:35:19;102058.84;;;18.77;56.22
69245;BME280;56357;52.304;4.870;2024-02-21T04:37:45;102057.53;;;18.63;56.64
69245;BME280;56357;52.304;4.870;2024-02-21T04:40:12;102060.69;;;19.05;55.22
69245;BME280;56357;52.304;4.870;2024-02-21T04:42:39;102056.97;;;18.83;56.07
69245;BME280;56357;52.304;4.870;2024-02-21T04:45:06;102059.47;;;19.17;55.17
69245;BME280;56357;52.304;4.870;2024-02-21T04:47:32;102045.69;;;19.16;55.00
69245;BME280;56357;52.304;4.870;2024-02-21T04:49:59;102050.00;;;19.24;54.85
69245;BME280;56357;52.304;4.870;2024-02-21T04:52:25;102046.88;;;19.20;54.88
69245;BME280;56357;52.304;4.870;2024-02-21T04:54:52;102050.69;;;19.31;54.69
69245;BME280;56357;52.304;4.870;2024-02-21T04:57:17;102037.00;;;19.17;54.93
69245;BME280;56357;52.304;4.870;2024-02-21T04:59:44;102042.88;;;19.16;54.95
69245;BME280;56357;52.304;4.870;2024-02-21T05:02:11;102046.72;;;19.10;55.06
69245;BME280;56357;52.304;4.870;2024-02-21T05:04:37;102035.94;;;19.02;55.32
69245;BME280;56357;52.304;4.870;2024-02-21T05:07:05;102030.78;;;18.94;55.62
69245;BME280;56357;52.304;4.870;2024-02-21T05:09:31;102029.28;;;19.08;55.20
69245;BME280;56357;52.304;4.870;2024-02-21T05:11:58;102024.59;;;19.13;54.94
69245;BME280;56357;52.304;4.870;2024-02-21T05:14:25;102011.50;;;19.19;54.90
69245;BME280;56357;52.304;4.870;2024-02-21T05:16:53;102015.84;;;19.10;55.33
69245;BME280;56357;52.304;4.870;2024-02-21T05:19:19;102004.63;;;19.32;54.18
69245;BME280;56357;52.304;4.870;2024-02-21T05:21:46;102003.28;;;19.17;55.00
69245;BME280;56357;52.304;4.870;2024-02-21T05:24:12;101999.34;;;19.35;54.59
69245;BME280;56357;52.304;4.870;2024-02-21T05:26:39;101995.69;;;18.96;55.71
69245;BME280;56357;52.304;4.870;2024-02-21T05:29:05;101997.16;;;18.99;56.03
69245;BME280;56357;52.304;4.870;2024-02-21T05:34:17;101973.66;;;19.27;55.09
69245;BME280;56357;52.304;4.870;2024-02-21T05:36:44;101963.06;;;20.08;53.13
69245;BME280;56357;52.304;4.870;2024-02-21T05:39:11;101967.38;;;20.48;52.07
69245;BME280;56357;52.304;4.870;2024-02-21T05:41:38;101959.25;;;20.51;51.91
69245;BME280;56357;52.304;4.870;2024-02-21T05:44:04;101949.75;;;20.62;51.61
69245;BME280;56357;52.304;4.870;2024-02-21T05:46:30;101957.06;;;20.63;51.41
69245;BME280;56357;52.304;4.870;2024-02-21T05:48:57;101946.34;;;20.60;51.58
69245;BME280;56357;52.304;4.870;2024-02-21T05:51:23;101937.41;;;20.68;51.26
69245;BME280;56357;52.304;4.870;2024-02-21T05:53:50;101933.81;;;20.78;51.41
69245;BME280;56357;52.304;4.870;2024-02-21T05:56:17;101930.13;;;20.77;51.22
69245;BME280;56357;52.304;4.870;2024-02-21T05:58:44;101936.34;;;20.84;51.11
69245;BME280;56357;52.304;4.870;2024-02-21T06:01:12;101938.66;;;20.92;50.94
69245;BME280;56357;52.304;4.870;2024-02-21T06:03:37;101937.28;;;20.95;50.91
69245;BME280;56357;52.304;4.870;2024-02-21T06:06:04;101932.16;;;20.82;51.08
69245;BME280;56357;52.304;4.870;2024-02-21T06:08:31;101932.44;;;20.85;51.07
69245;BME280;56357;52.304;4.870;2024-02-21T06:10:57;101931.06;;;20.88;51.08
69245;BME280;56357;52.304;4.870;2024-02-21T06:13:24;101935.41;;;20.64;51.62
69245;BME280;56357;52.304;4.870;2024-02-21T06:15:50;101940.84;;;20.07;53.40
69245;BME280;56357;52.304;4.870;2024-02-21T06:18:17;101934.56;;;20.00;53.48
69245;BME280;56357;52.304;4.870;2024-02-21T06:20:44;101942.78;;;20.01;53.28
69245;BME280;56357;52.304;4.870;2024-02-21T06:23:12;101942.44;;;19.98;53.58
69245;BME280;56357;52.304;4.870;2024-02-21T06:25:38;101934.53;;;19.95;53.61
69245;BME280;56357;52.304;4.870;2024-02-21T06:28:05;101947.75;;;19.94;53.53
69245;BME280;56357;52.304;4.870;2024-02-21T06:30:32;101954.22;;;19.95;53.86
69245;BME280;56357;52.304;4.870;2024-02-21T06:32:58;101955.59;;;19.92;53.76
69245;BME280;56357;52.304;4.870;2024-02-21T06:35:25;101947.16;;;19.92;53.86
69245;BME280;56357;52.304;4.870;2024-02-21T06:37:52;101946.84;;;19.89;53.94
69245;BME280;56357;52.304;4.870;2024-02-21T06:40:21;101939.78;;;19.86;53.91
69245;BME280;56357;52.304;4.870;2024-02-21T06:42:48;101933.97;;;19.93;54.08
69245;BME280;56357;52.304;4.870;2024-02-21T06:45:15;101933.97;;;19.93;53.94
69245;BME280;56357;52.304;4.870;2024-02-21T06:47:42;101931.00;;;19.78;54.04
69245;BME280;56357;52.304;4.870;2024-02-21T06:50:09;101936.75;;;19.88;54.18
69245;BME280;56357;52.304;4.870;2024-02-21T06:52:36;101923.50;;;19.88;53.76
69245;BME280;56357;52.304;4.870;2024-02-21T06:55:03;101925.72;;;19.86;54.07
69245;BME280;56357;52.304;4.870;2024-02-21T06:57:29;101918.16;;;19.87;54.05
69245;BME280;56357;52.304;4.870;2024-02-21T06:59:56;101917.28;;;19.86;53.86
69245;BME280;56357;52.304;4.870;2024-02-21T07:02:22;101917.88;;;19.88;54.02
69245;BME280;56357;52.304;4.870;2024-02-21T07:04:48;101904.84;;;19.77;54.17
69245;BME280;56357;52.304;4.870;2024-02-21T07:07:15;101903.81;;;19.88;53.98
69245;BME280;56357;52.304;4.870;2024-02-21T07:09:41;101904.75;;;19.67;54.29
69245;BME280;56357;52.304;4.870;2024-02-21T07:12:08;101897.03;;;19.53;55.30
69245;BME280;56357;52.304;4.870;2024-02-21T07:14:35;101894.84;;;19.33;55.53
69245;BME280;56357;52.304;4.870;2024-02-21T07:17:02;101894.00;;;19.59;54.79
69245;BME280;56357;52.304;4.870;2024-02-21T07:19:28;101890.28;;;19.80;54.10
69245;BME280;56357;52.304;4.870;2024-02-21T07:21:55;101889.69;;;19.78;54.48
69245;BME280;56357;52.304;4.870;2024-02-21T07:24:22;101887.13;;;19.77;54.28
69245;BME280;56357;52.304;4.870;2024-02-21T07:26:48;101881.06;;;19.58;55.01
69245;BME280;56357;52.304;4.870;2024-02-21T07:29:14;101883.22;;;19.78;54.14
69245;BME280;56357;52.304;4.870;2024-02-21T07:31:41;101872.72;;;19.68;54.58
69245;BME280;56357;52.304;4.870;2024-02-21T07:34:08;101864.00;;;19.65;54.64
69245;BME280;56357;52.304;4.870;2024-02-21T07:36:35;101860.88;;;19.61;54.74
69245;BME280;56357;52.304;4.870;2024-02-21T07:39:02;101853.94;;;19.74;54.20
69245;BME280;56357;52.304;4.870;2024-02-21T07:41:29;101849.47;;;19.73;54.50
69245;BME280;56357;52.304;4.870;2024-02-21T07:43:56;101841.28;;;19.71;54.33
69245;BME280;56357;52.304;4.870;2024-02-21T07:46:23;101842.34;;;19.65;54.49
69245;BME280;56357;52.304;4.870;2024-02-21T07:48:50;101837.81;;;19.59;54.60
69245;BME280;56357;52.304;4.870;2024-02-21T07:51:16;101843.81;;;19.19;55.64
69245;BME280;56357;52.304;4.870;2024-02-21T07:53:43;101852.31;;;19.78;54.80
69245;BME280;56357;52.304;4.870;2024-02-21T07:56:12;101846.63;;;20.46;53.45
69245;BME280;56357;52.304;4.870;2024-02-21T07:58:39;101842.50;;;20.59;52.40
69245;BME280;56357;52.304;4.870;2024-02-21T08:01:06;101837.44;;;20.61;52.51
69245;BME280;56357;52.304;4.870;2024-02-21T08:03:32;101833.72;;;20.50;52.74
69245;BME280;56357;52.304;4.870;2024-02-21T08:05:59;101830.03;;;20.45;52.52
69245;BME280;56357;52.304;4.870;2024-02-21T08:08:25;101830.69;;;20.62;52.45
69245;BME280;56357;52.304;4.870;2024-02-21T08:10:52;101825.09;;;20.67;52.26
69245;BME280;56357;52.304;4.870;2024-02-21T08:13:19;101830.72;;;20.67;51.78
69245;BME280;56357;52.304;4.870;2024-02-21T08:15:46;101831.88;;;20.76;52.13
69245;BME280;56357;52.304;4.870;2024-02-21T08:18:12;101831.28;;;20.69;52.32
69245;BME280;56357;52.304;4.870;2024-02-21T08:20:39;101812.69;;;20.63;52.29
69245;BME280;56357;52.304;4.870;2024-02-21T08:23:05;101811.03;;;20.77;51.60
69245;BME280;56357;52.304;4.870;2024-02-21T08:25:31;101808.53;;;20.80;51.67
69245;BME280;56357;52.304;4.870;2024-02-21T08:27:59;101805.09;;;20.73;51.92
69245;BME280;56357;52.304;4.870;2024-02-21T08:30:25;101794.72;;;20.74;52.05
69245;BME280;56357;52.304;4.870;2024-02-21T08:32:52;101793.00;;;20.68;52.12
69245;BME280;56357;52.304;4.870;2024-02-21T08:35:19;101785.34;;;20.58;52.16
69245;BME280;56357;52.304;4.870;2024-02-21T08:37:47;101781.97;;;20.56;52.41
69245;BME280;56357;52.304;4.870;2024-02-21T08:40:14;101782.25;;;20.60;52.43
69245;BME280;56357;52.304;4.870;2024-02-21T08:42:43;101783.19;;;20.90;51.43
69245;BME280;56357;52.304;4.870;2024-02-21T08:45:10;101787.97;;;20.80;51.46
69245;BME280;56357;52.304;4.870;2024-02-21T08:47:39;101789.44;;;20.98;51.37
69245;BME280;56357;52.304;4.870;2024-02-21T08:50:06;101778.97;;;20.83;51.82
69245;BME280;56357;52.304;4.870;2024-02-21T08:52:32;101771.09;;;20.80;51.72
69245;BME280;56357;52.304;4.870;2024-02-21T08:54:59;101775.28;;;20.72;52.08
69245;BME280;56357;52.304;4.870;2024-02-21T08:57:25;101772.47;;;20.72;52.13
69245;BME280;56357;52.304;4.870;2024-02-21T08:59:52;101771.63;;;20.77;52.00
69245;BME280;56357;52.304;4.870;2024-02-21T09:02:18;101766.25;;;20.70;52.69
69245;BME280;56357;52.304;4.870;2024-02-21T09:04:45;101760.34;;;20.67;52.29
69245;BME280;56357;52.304;4.870;2024-02-21T09:07:11;101758.09;;;20.74;52.00
69245;BME280;56357;52.304;4.870;2024-02-21T09:09:37;101757.53;;;20.67;51.81
69245;BME280;56357;52.304;4.870;2024-02-21T09:12:06;101746.28;;;20.77;52.08
69245;BME280;56357;52.304;4.870;2024-02-21T09:14:33;101744.03;;;20.69;52.07
69245;BME280;56357;52.304;4.870;2024-02-21T09:17:00;101742.03;;;20.69;52.23
69245;BME280;56357;52.304;4.870;2024-02-21T09:19:26;101716.13;;;20.67;52.20
69245;BME280;56357;52.304;4.870;2024-02-21T09:21:52;101723.75;;;20.72;52.06
69245;BME280;56357;52.304;4.870;2024-02-21T09:24:19;101710.25;;;20.69;52.00
69245;BME280;56357;52.304;4.870;2024-02-21T09:26:45;101716.72;;;20.74;51.81
69245;BME280;56357;52.304;4.870;2024-02-21T09:29:12;101715.31;;;20.67;52.24
69245;BME280;56357;52.304;4.870;2024-02-21T09:31:40;101701.53;;;20.70;52.32
69245;BME280;56357;52.304;4.870;2024-02-21T09:34:07;101703.47;;;20.75;51.53
69245;BME280;56357;52.304;4.870;2024-02-21T09:36:33;101689.69;;;20.68;52.12
69245;BME280;56357;52.304;4.870;2024-02-21T09:39:00;101688.28;;;20.76;51.91
69245;BME280;56357;52.304;4.870;2024-02-21T09:41:27;101678.16;;;20.85;51.58
69245;BME280;56357;52.304;4.870;2024-02-21T09:43:53;101671.13;;;20.82;51.69
69245;BME280;56357;52.304;4.870;2024-02-21T09:46:22;101657.59;;;20.79;51.58
69245;BME280;56357;52.304;4.870;2024-02-21T09:51:53;101643.81;;;20.78;51.51
69245;BME280;56357;52.304;4.870;2024-02-21T09:54:21;101638.19;;;20.78;51.67
69245;BME280;56357;52.304;4.870;2024-02-21T09:56:48;101624.97;;;20.78;51.49
69245;BME280;56357;52.304;4.870;2024-02-21T09:59:16;101620.19;;;20.84;51.29
69245;BME280;56357;52.304;4.870;2024-02-21T10:01:43;101618.47;;;20.73;51.44
69245;BME280;56357;52.304;4.870;2024-02-21T10:04:12;101619.03;;;20.75;51.63
69245;BME280;56357;52.304;4.870;2024-02-21T10:06:38;101617.91;;;20.76;51.62
69245;BME280;56357;52.304;4.870;2024-02-21T10:09:08;101615.94;;;20.81;51.66
69245;BME280;56357;52.304;4.870;2024-02-21T10:11:34;101614.53;;;20.74;51.55
69245;BME280;56357;52.304;4.870;2024-02-21T10:14:05;101606.38;;;20.77;51.70
69245;BME280;56357;52.304;4.870;2024-02-21T10:16:32;101609.47;;;20.76;51.37
69245;BME280;56357;52.304;4.870;2024-02-21T10:18:59;101596.53;;;20.90;50.97
69245;BME280;56357;52.304;4.870;2024-02-21T10:21:25;101593.16;;;20.78;51.17
69245;BME280;56357;52.304;4.870;2024-02-21T10:23:52;101577.38;;;20.72;51.39
69245;BME280;56357;52.304;4.870;2024-02-21T10:26:19;101575.13;;;20.74;51.43
69245;BME280;56357;52.304;4.870;2024-02-21T10:28:49;101571.75;;;20.87;51.27
69245;BME280;56357;52.304;4.870;2024-02-21T10:31:24;101559.38;;;20.78;51.05
69245;BME280;56357;52.304;4.870;2024-02-21T10:33:58;101555.16;;;20.80;51.30
69245;BME280;56357;52.304;4.870;2024-02-21T10:36:25;101557.94;;;20.75;51.26
69245;BME280;56357;52.304;4.870;2024-02-21T10:38:52;101542.75;;;20.66;51.51
69245;BME280;56357;52.304;4.870;2024-02-21T10:41:20;101539.66;;;20.63;51.68
69245;BME280;56357;52.304;4.870;2024-02-21T10:43:50;101530.09;;;20.69;51.72
69245;BME280;56357;52.304;4.870;2024-02-21T10:46:19;101534.88;;;20.68;51.56
69245;BME280;56357;52.304;4.870;2024-02-21T10:48:47;101525.31;;;20.74;51.42
69245;BME280;56357;52.304;4.870;2024-02-21T10:58:49;101531.75;;;20.75;51.62
69245;BME280;56357;52.304;4.870;2024-02-21T11:01:15;101538.81;;;20.77;51.14
69245;BME280;56357;52.304;4.870;2024-02-21T11:03:44;101532.91;;;20.69;51.36
69245;BME280;56357;52.304;4.870;2024-02-21T11:06:12;101546.13;;;20.63;51.56
69245;BME280;56357;52.304;4.870;2024-02-21T11:08:39;101523.91;;;20.67;51.32
69245;BME280;56357;52.304;4.870;2024-02-21T11:11:06;101534.56;;;20.60;51.63
69245;BME280;56357;52.304;4.870;2024-02-21T11:13:35;101530.09;;;20.59;51.67
69245;BME280;56357;52.304;4.870;2024-02-21T11:16:12;101521.63;;;20.64;51.38
69245;BME280;56357;52.304;4.870;2024-02-21T11:18:47;101510.13;;;20.55;51.43
69245;BME280;56357;52.304;4.870;2024-02-21T11:21:13;101496.03;;;20.50;51.90
69245;BME280;56357;52.304;4.870;2024-02-21T11:23:40;101484.50;;;20.47;51.84
69245;BME280;56357;52.304;4.870;2024-02-21T11:26:10;101481.09;;;20.50;51.93
69245;BME280;56357;52.304;4.870;2024-02-21T11:28:44;101466.75;;;20.46;51.72
69245;BME280;56357;52.304;4.870;2024-02-21T11:31:12;101467.03;;;20.50;51.79
69245;BME280;56357;52.304;4.870;2024-02-21T11:33:43;101464.22;;;20.55;51.38
69245;BME280;56357;52.304;4.870;2024-02-21T11:36:10;101453.84;;;20.55;51.54
69245;BME280;56357;52.304;4.870;2024-02-21T11:38:36;101440.88;;;20.59;51.09
69245;BME280;56357;52.304;4.870;2024-02-21T11:41:07;101430.72;;;20.68;51.10
69245;BME280;56357;52.304;4.870;2024-02-21T11:43:34;101416.38;;;20.70;51.22
69245;BME280;56357;52.304;4.870;2024-02-21T11:46:01;101430.16;;;20.76;50.87
69245;BME280;56357;52.304;4.870;2024-02-21T11:48:29;101415.75;;;20.83;50.69
69245;BME280;56357;52.304;4.870;2024-02-21T11:50:56;101392.97;;;20.79;50.72
69245;BME280;56357;52.304;4.870;2024-02-21T11:53:23;101384.50;;;20.84;50.56
69245;BME280;56357;52.304;4.870;2024-02-21T11:55:52;101369.16;;;20.17;52.30
69245;BME280;56357;52.304;4.870;2024-02-21T11:58:20;101363.50;;;20.06;52.88
69245;BME280;56357;52.304;4.870;2024-02-21T12:00:47;101365.78;;;19.99;52.81
69245;BME280;56357;52.304;4.870;2024-02-21T12:03:14;101355.06;;;19.96;52.91
69245;BME280;56357;52.304;4.870;2024-02-21T12:05:43;101354.81;;;19.93;52.85
69245;BME280;56357;52.304;4.870;2024-02-21T12:08:11;101356.19;;;19.90;53.16
69245;BME280;56357;52.304;4.870;2024-02-21T12:10:38;101357.88;;;19.86;53.45
69245;BME280;56357;52.304;4.870;2024-02-21T12:13:05;101342.16;;;19.85;52.97
69245;BME280;56357;52.304;4.870;2024-02-21T12:15:32;101313.75;;;19.82;52.88
69245;BME280;56357;52.304;4.870;2024-02-21T12:17:58;101310.13;;;19.76;53.11
69245;BME280;56357;52.304;4.870;2024-02-21T12:20:26;101315.75;;;19.76;53.11
69245;BME280;56357;52.304;4.870;2024-02-21T12:22:52;101310.09;;;19.71;53.20
69245;BME280;56357;52.304;4.870;2024-02-21T12:25:21;101303.91;;;19.69;53.14
69245;BME280;56357;52.304;4.870;2024-02-21T12:27:51;101289.28;;;19.67;53.16
69245;BME280;56357;52.304;4.870;2024-02-21T12:30:18;101283.69;;;19.67;53.12
69245;BME280;56357;52.304;4.870;2024-02-21T12:32:48;101277.81;;;19.69;53.00
69245;BME280;56357;52.304;4.870;2024-02-21T12:35:14;101261.50;;;19.71;53.20
69245;BME280;56357;52.304;4.870;2024-02-21T12:37:42;101255.56;;;19.67;53.35
69245;BME280;56357;52.304;4.870;2024-02-21T12:40:09;101242.97;;;19.65;53.33
69245;BME280;56357;52.304;4.870;2024-02-21T12:42:38;101240.72;;;19.67;53.22
69245;BME280;56357;52.304;4.870;2024-02-21T12:45:05;101232.28;;;19.67;53.22
69245;BME280;56357;52.304;4.870;2024-02-21T12:47:31;101228.63;;;19.66;53.35
69245;BME280;56357;52.304;4.870;2024-02-21T12:49:57;101213.44;;;19.62;53.50
69245;BME280;56357;52.304;4.870;2024-02-21T12:52:24;101211.75;;;19.46;53.72
69245;BME280;56357;52.304;4.870;2024-02-21T12:54:50;101211.19;;;19.54;53.43
69245;BME280;56357;52.304;4.870;2024-02-21T12:57:17;101197.72;;;19.61;53.59
69245;BME280;56357;52.304;4.870;2024-02-21T12:59:43;101205.56;;;19.54;53.78
69245;BME280;56357;52.304;4.870;2024-02-21T13:02:09;101202.22;;;19.47;53.69